LIPL/QBS METAR and TAF weather

Enter ICAO airport designator
Station Type Date Time Source
LIPL METAR 2019/06/17 13:55 UTC NOAA

LIPL 171355Z 14007KT 9999 SCT040 28/16 Q1014 RMK SCT VIS MIN 9999 WIND THR31 13006KT WIND THR13 13006KT BLU


Station Type Date Time Source
LIPL Decoded METAR 2019/06/17 13:55 UTC NOAA

Brescia / Ghedi, Italy (LIPL) 45-25N 010-17E 97M
Jun 17, 2019 - 09:55 AM EDT / 2019.06.17 1355 UTC
Wind: from the SE (140 degrees) at 8 MPH (7 KT):0
Visibility: greater than 7 mile(s):0
Sky conditions: partly cloudy
Temperature: 82 F (28 C)
Dew Point: 60 F (16 C)
Relative Humidity: 48%
Pressure (altimeter): 29.94 in. Hg (1014 hPa)
ob: LIPL 171355Z 14007KT 9999 SCT040 28/16 Q1014 RMK SCT VIS MIN 9999 WIND THR31 13006KT WIND THR13 13006KT BLU
cycle: 14

Station Type Date Time Source
LIPL TAF 2018/06/14 09:48 UTC NOAA

TAF TAF LIPL 140800Z 1409/1421 VRB05KT 9999 SCT035 SCT080

Example: see airport list